Time;durP1;ratioP1;P1;durP2;ratioP2;P2;SDS_P1;SDS_P2;PMS_P1;PMS_P2;Temp;Humidity;BMP_temperature;BMP_pressure;BME280_temperature;BME280_humidity;BME280_pressure;Samples;Min_cycle;Max_cycle;Signal;HPM_P1;HPM_P2
2021/05/24 00:00:34;;;;;;;1.30;1.20;;;;;;;12.31;66.47;95711.03;4956374;29;20287;-85
2021/05/24 00:03:01;;;;;;;1.77;1.30;;;;;;;12.32;66.83;95683.41;4956114;29;20313;-85
2021/05/24 00:05:29;;;;;;;1.50;1.40;;;;;;;12.33;66.85;95678.06;4956394;29;20260;-85
2021/05/24 00:07:55;;;;;;;2.77;1.33;;;;;;;12.25;66.75;95685.97;4957170;29;20698;-83
2021/05/24 00:10:24;;;;;;;1.53;1.40;;;;;;;12.33;66.47;95688.41;4956015;29;20224;-84
2021/05/24 00:12:51;;;;;;;1.30;1.20;;;;;;;12.31;66.39;95680.06;4936591;29;20233;-86
2021/05/24 00:15:20;;;;;;;2.03;1.30;;;;;;;12.33;66.68;95688.41;4936121;29;20701;-84
2021/05/24 00:17:46;;;;;;;1.30;1.20;;;;;;;12.31;66.42;95672.31;4955983;29;20197;-82
2021/05/24 00:20:14;;;;;;;1.30;1.20;;;;;;;12.21;66.82;95661.47;4955497;28;20208;-86
2021/05/24 00:22:41;;;;;;;1.40;1.10;;;;;;;12.21;66.70;95676.97;4938761;29;20218;-86
2021/05/24 00:25:09;;;;;;;1.00;1.00;;;;;;;12.24;66.62;95676.59;4937770;29;20269;-83
2021/05/24 00:27:35;;;;;;;1.30;1.20;;;;;;;12.18;66.53;95667.00;4959754;28;20665;-84
2021/05/24 00:30:01;;;;;;;2.30;1.53;;;;;;;12.18;66.57;95671.38;4973836;28;20200;-84
2021/05/24 00:32:27;;;;;;;1.57;1.47;;;;;;;12.24;66.42;95666.28;4959867;28;20239;-85
2021/05/24 00:34:53;;;;;;;2.67;1.20;;;;;;;12.29;66.32;95669.13;4957298;29;20208;-86
2021/05/24 00:37:20;;;;;;;1.87;1.43;;;;;;;12.31;65.93;95663.78;4944040;29;20219;-84
2021/05/24 00:39:46;;;;;;;1.30;1.20;;;;;;;12.32;65.66;95660.19;4937206;29;20213;-83
2021/05/24 00:42:12;;;;;;;1.23;1.13;;;;;;;12.32;65.95;95658.41;4948596;29;20203;-82
2021/05/24 00:44:38;;;;;;;2.03;1.50;;;;;;;12.29;66.11;95648.47;4957679;29;20295;-84
2021/05/24 00:47:04;;;;;;;3.23;1.50;;;;;;;12.24;65.93;95643.06;4947506;29;20197;-86
2021/05/24 00:49:31;;;;;;;2.47;1.30;;;;;;;12.21;66.22;95637.44;4937357;29;20685;-82
2021/05/24 00:51:58;;;;;;;1.73;1.37;;;;;;;12.15;66.42;95638.19;4944386;29;20225;-83
2021/05/24 00:54:26;;;;;;;1.30;1.20;;;;;;;12.13;66.67;95632.41;4957619;29;20208;-82
2021/05/24 00:56:54;;;;;;;1.90;1.40;;;;;;;12.09;66.95;95625.06;4956619;29;20692;-83
2021/05/24 00:59:21;;;;;;;1.63;1.30;;;;;;;12.07;67.23;95621.84;4957522;29;20200;-84
2021/05/24 01:01:47;;;;;;;1.40;1.30;;;;;;;11.98;67.76;95622.94;4951636;29;20205;-82
2021/05/24 01:04:15;;;;;;;2.27;1.30;;;;;;;12.03;67.75;95609.50;4938675;29;20229;-84
2021/05/24 01:06:41;;;;;;;1.30;1.20;;;;;;;12.00;67.38;95604.69;4942123;29;20291;-85
2021/05/24 01:09:07;;;;;;;1.80;1.40;;;;;;;12.06;67.29;95607.34;4958109;29;20204;-83
2021/05/24 01:11:34;;;;;;;1.50;1.23;;;;;;;12.11;67.28;95599.06;4942949;29;20220;-82
2021/05/24 01:14:01;;;;;;;2.43;1.20;;;;;;;12.09;67.46;95598.44;4955724;29;20224;-84
2021/05/24 01:16:26;;;;;;;1.50;1.40;;;;;;;12.04;67.26;95611.09;4956569;29;20244;-86
2021/05/24 01:18:52;;;;;;;1.90;1.30;;;;;;;12.09;66.80;95593.28;4944193;29;20502;-83
2021/05/24 01:21:21;;;;;;;1.47;1.20;;;;;;;12.03;67.19;95592.22;4937812;29;20249;-84
2021/05/24 01:23:48;;;;;;;1.30;1.20;;;;;;;11.94;68.07;95601.06;4953412;29;20264;-84
2021/05/24 01:26:15;;;;;;;2.27;1.20;;;;;;;11.90;68.11;95597.28;4958609;28;20208;-82
2021/05/24 01:28:41;;;;;;;2.00;1.50;;;;;;;11.97;67.77;95597.31;4968267;28;20679;-84
2021/05/24 01:31:07;;;;;;;1.40;1.30;;;;;;;11.86;68.51;95593.47;4976252;28;20208;-86
2021/05/24 01:33:35;;;;;;;1.37;1.27;;;;;;;11.81;68.35;95577.72;4960979;28;20232;-86
2021/05/24 01:36:02;;;;;;;1.27;1.10;;;;;;;11.85;68.34;95568.66;4959982;29;20216;-85
2021/05/24 01:38:30;;;;;;;2.17;1.40;;;;;;;11.83;68.31;95560.28;4947736;29;20197;-83
2021/05/24 01:40:56;;;;;;;1.50;1.40;;;;;;;11.79;68.83;95560.84;4941281;29;20232;-85
2021/05/24 01:43:26;;;;;;;1.33;1.23;;;;;;;11.77;69.43;95555.84;4952682;29;20225;-86
2021/05/24 01:45:52;;;;;;;1.43;1.30;;;;;;;11.79;69.04;95551.31;4960442;29;20208;-86
2021/05/24 01:48:19;;;;;;;1.00;1.00;;;;;;;11.81;68.43;95548.56;4950034;29;20201;-84
2021/05/24 01:50:45;;;;;;;1.20;1.10;;;;;;;11.75;68.75;95545.69;4941527;29;20201;-85
2021/05/24 01:53:11;;;;;;;1.40;1.30;;;;;;;11.82;68.43;95548.38;4946713;29;20233;-82
2021/05/24 01:55:38;;;;;;;2.20;1.50;;;;;;;11.83;68.67;95544.81;4940973;29;20217;-84
2021/05/24 01:58:05;;;;;;;1.40;1.30;;;;;;;11.85;68.60;95544.63;4951449;29;20633;-83
2021/05/24 02:00:31;;;;;;;1.30;1.20;;;;;;;11.72;68.85;95543.50;4960130;29;20209;-85
2021/05/24 02:02:57;;;;;;;1.33;1.13;;;;;;;11.64;68.76;95548.78;4950410;29;20247;-86
2021/05/24 02:05:24;;;;;;;2.80;1.30;;;;;;;11.62;69.15;95549.94;4939989;29;20264;-86
2021/05/24 02:07:52;;;;;;;1.90;1.30;;;;;;;11.64;68.80;95543.63;4948092;29;20209;-84
2021/05/24 02:10:21;;;;;;;1.93;1.43;;;;;;;11.59;68.84;95530.47;4960584;29;20238;-84
2021/05/24 02:12:48;;;;;;;2.97;1.27;;;;;;;11.62;68.85;95543.00;4952868;29;20229;-86
2021/05/24 02:15:18;;;;;;;1.60;1.20;;;;;;;11.62;68.74;95534.47;4940429;29;20201;-83
2021/05/24 02:17:44;;;;;;;1.50;1.20;;;;;;;11.61;68.68;95546.56;4946342;29;20235;-86
2021/05/24 02:20:11;;;;;;;1.00;1.00;;;;;;;11.57;69.00;95539.38;4960237;29;20205;-85
2021/05/24 02:22:37;;;;;;;1.50;1.40;;;;;;;11.65;68.20;95519.44;4955982;29;20213;-84
2021/05/24 02:25:05;;;;;;;1.37;1.27;;;;;;;11.59;68.76;95520.16;4942837;29;20201;-84
2021/05/24 02:27:31;;;;;;;1.40;1.30;;;;;;;11.60;68.35;95513.22;4961616;28;20201;-84
2021/05/24 02:29:58;;;;;;;1.10;1.10;;;;;;;11.55;68.79;95502.66;4979942;28;20622;-86
2021/05/24 02:32:24;;;;;;;1.70;1.00;;;;;;;11.57;68.69;95500.69;4979504;28;20239;-84
2021/05/24 02:34:50;;;;;;;1.40;1.30;;;;;;;11.56;68.77;95491.34;4962730;29;20269;-85
2021/05/24 02:37:16;;;;;;;1.67;1.27;;;;;;;11.56;69.16;95497.31;4961929;29;20284;-84
2021/05/24 02:39:42;;;;;;;1.50;1.37;;;;;;;11.52;68.68;95497.88;4943616;29;20479;-85
2021/05/24 02:42:08;;;;;;;1.30;1.20;;;;;;;11.46;69.01;95488.28;4942090;29;20812;-85
2021/05/24 02:44:34;;;;;;;1.47;1.23;;;;;;;11.43;68.93;95476.56;4957727;28;20205;-86
2021/05/24 02:47:01;;;;;;;2.37;1.70;;;;;;;11.47;68.76;95469.28;4961296;29;20381;-86
2021/05/24 02:49:27;;;;;;;1.20;1.10;;;;;;;11.52;68.26;95461.78;4945759;29;20221;-85
2021/05/24 02:51:53;;;;;;;1.80;1.00;;;;;;;11.55;68.82;95475.09;4947980;29;20228;-86
2021/05/24 02:54:19;;;;;;;1.80;1.33;;;;;;;11.62;68.05;95483.69;4960454;29;20239;-81
2021/05/24 02:56:45;;;;;;;1.40;1.10;;;;;;;11.46;68.50;95471.06;4963151;28;20259;-85
2021/05/24 02:59:11;;;;;;;1.17;1.03;;;;;;;11.32;69.04;95472.72;4959878;29;20212;-85
2021/05/24 03:01:37;;;;;;;1.47;1.20;;;;;;;11.35;68.42;95482.63;4960516;29;20204;-86
2021/05/24 03:04:06;;;;;;;1.30;1.20;;;;;;;11.40;68.73;95477.72;4956230;29;20223;-84
2021/05/24 03:06:34;;;;;;;1.20;1.10;;;;;;;11.47;68.28;95488.13;4961191;29;20205;-83
2021/05/24 03:09:00;;;;;;;1.20;1.10;;;;;;;11.49;68.11;95487.94;4946808;29;20202;-83
2021/05/24 03:11:26;;;;;;;1.43;1.33;;;;;;;11.43;68.35;95495.41;4952950;29;20216;-83
2021/05/24 03:13:52;;;;;;;1.43;1.10;;;;;;;11.48;68.02;95504.38;4960717;29;20235;-83
2021/05/24 03:16:18;;;;;;;1.40;1.30;;;;;;;11.61;67.43;95499.34;4960389;29;20201;-86
2021/05/24 03:18:45;;;;;;;1.37;1.27;;;;;;;11.51;68.36;95499.66;4959747;29;20208;-86
2021/05/24 03:21:12;;;;;;;1.53;1.17;;;;;;;11.40;68.67;95505.28;4960304;29;20205;-86
2021/05/24 03:23:38;;;;;;;1.47;1.30;;;;;;;11.35;68.90;95497.31;4953133;29;20217;-85
2021/05/24 03:26:04;;;;;;;2.53;1.40;;;;;;;11.28;69.02;95484.38;4939684;29;20217;-85
2021/05/24 03:28:30;;;;;;;1.57;1.10;;;;;;;11.26;69.40;95483.75;4952747;28;20205;-83
2021/05/24 03:30:56;;;;;;;1.50;1.40;;;;;;;11.29;69.57;95483.38;4960324;29;20669;-84
2021/05/24 03:33:22;;;;;;;1.53;1.30;;;;;;;11.29;69.90;95474.84;4954883;29;20320;-83
2021/05/24 03:35:48;;;;;;;1.87;1.50;;;;;;;11.36;69.39;95465.38;4940715;29;20294;-86
2021/05/24 03:38:15;;;;;;;2.00;1.30;;;;;;;11.28;70.26;95462.94;4940879;29;20214;-86
2021/05/24 03:40:41;;;;;;;2.23;1.30;;;;;;;11.32;69.19;95472.72;4959671;29;20553;-83
2021/05/24 03:43:07;;;;;;;1.43;1.30;;;;;;;11.34;69.28;95473.34;4957757;29;20260;-86
2021/05/24 03:45:35;;;;;;;1.43;1.30;;;;;;;11.44;69.03;95452.38;4939927;29;20206;-85
2021/05/24 03:48:01;;;;;;;1.30;1.20;;;;;;;11.39;69.14;95468.41;4939251;29;20205;-84
2021/05/24 03:50:27;;;;;;;1.33;1.20;;;;;;;11.49;68.92;95477.63;4957572;29;20201;-83
2021/05/24 03:52:53;;;;;;;1.57;1.30;;;;;;;11.49;68.48;95462.94;4958171;29;20288;-83
2021/05/24 03:55:20;;;;;;;2.00;1.27;;;;;;;11.40;68.79;95451.94;4957274;28;20208;-86
2021/05/24 03:57:48;;;;;;;1.50;1.40;;;;;;;11.39;68.32;95457.28;4959126;29;20208;-85
2021/05/24 04:00:15;;;;;;;1.77;1.20;;;;;;;11.24;68.81;95449.63;4943361;29;20232;-86
2021/05/24 04:02:42;;;;;;;1.37;1.27;;;;;;;10.91;69.81;95448.50;4939178;29;20229;-82
2021/05/24 04:05:14;;;;;;;1.57;1.23;;;;;;;10.79;70.17;95447.34;4952597;29;20221;-84
2021/05/24 04:07:43;;;;;;;1.40;1.30;;;;;;;10.67;70.93;95454.75;4958452;29;20228;-83
2021/05/24 04:10:10;;;;;;;1.83;1.40;;;;;;;10.56;70.88;95445.72;4944523;29;20204;-83
2021/05/24 04:12:37;;;;;;;1.33;1.10;;;;;;;10.44;72.04;95446.34;4938196;29;20228;-83
2021/05/24 04:15:03;;;;;;;1.60;1.27;;;;;;;10.41;71.78;95447.47;4950052;29;20200;-85
2021/05/24 04:17:31;;;;;;;1.30;1.20;;;;;;;10.47;71.57;95440.84;4958301;29;20295;-86
2021/05/24 04:19:57;;;;;;;3.03;1.30;;;;;;;10.52;71.22;95439.31;4947826;29;20288;-84
2021/05/24 04:22:23;;;;;;;1.87;1.37;;;;;;;10.45;71.71;95438.44;4938001;29;20289;-85
2021/05/24 04:24:49;;;;;;;1.43;1.20;;;;;;;10.46;72.08;95429.75;4947672;29;20260;-85
2021/05/24 04:27:15;;;;;;;1.37;1.27;;;;;;;10.50;71.91;95422.47;4965739;28;20205;-85
2021/05/24 04:29:42;;;;;;;1.30;1.20;;;;;;;10.47;71.31;95423.63;4967988;28;20193;-86
2021/05/24 04:32:08;;;;;;;1.80;1.17;;;;;;;10.65;71.14;95425.81;4955342;29;20232;-84
2021/05/24 04:34:33;;;;;;;1.37;1.27;;;;;;;10.60;71.03;95415.25;4958368;29;20304;-85
2021/05/24 04:36:59;;;;;;;1.47;1.30;;;;;;;10.66;71.27;95424.81;4954820;29;20216;-85
2021/05/24 04:39:25;;;;;;;1.53;1.17;;;;;;;10.72;70.99;95442.94;4938858;29;20503;-86
2021/05/24 04:41:51;;;;;;;1.30;1.20;;;;;;;10.68;71.20;95433.16;4940521;29;20205;-86
2021/05/24 04:44:19;;;;;;;1.43;1.33;;;;;;;10.75;70.97;95436.63;4957736;29;20231;-86
2021/05/24 04:46:47;;;;;;;1.30;1.20;;;;;;;10.85;70.74;95433.75;4940123;29;20225;-82
2021/05/24 04:49:13;;;;;;;1.90;1.47;;;;;;;10.81;71.12;95435.09;4944040;29;20193;-83
2021/05/24 04:51:39;;;;;;;1.20;1.10;;;;;;;10.73;72.00;95431.66;4956473;29;20586;-85
2021/05/24 04:54:06;;;;;;;2.77;1.20;;;;;;;10.68;71.91;95418.53;4956747;29;20275;-83
2021/05/24 04:56:32;;;;;;;1.20;1.10;;;;;;;10.73;71.35;95423.13;4957471;29;20219;-85
2021/05/24 04:58:58;;;;;;;4.00;1.17;;;;;;;10.79;70.94;95424.16;4954182;29;20217;-85
2021/05/24 05:01:24;;;;;;;1.17;1.10;;;;;;;10.81;71.32;95435.09;4937513;29;20693;-85
2021/05/24 05:03:51;;;;;;;1.20;1.10;;;;;;;10.82;71.21;95432.34;4939056;29;20221;-86
2021/05/24 05:06:16;;;;;;;1.53;1.30;;;;;;;10.88;70.64;95433.41;4956376;28;20255;-85
2021/05/24 05:08:42;;;;;;;1.57;1.10;;;;;;;10.84;70.84;95443.25;4956616;29;20201;-86
2021/05/24 05:11:08;;;;;;;1.10;1.10;;;;;;;10.77;71.44;95431.31;4941963;29;20633;-82
2021/05/24 05:13:34;;;;;;;1.40;1.03;;;;;;;10.81;71.30;95429.94;4944290;29;20233;-83
2021/05/24 05:16:00;;;;;;;1.60;1.40;;;;;;;10.94;71.13;95441.22;4960734;29;20235;-84
2021/05/24 05:18:26;;;;;;;1.23;1.13;;;;;;;10.97;70.45;95437.44;4945546;29;20610;-86
2021/05/24 05:20:53;;;;;;;1.30;1.10;;;;;;;11.02;70.46;95438.50;4961740;29;20287;-85
2021/05/24 05:23:19;;;;;;;1.20;1.03;;;;;;;11.02;70.37;95441.06;4962851;29;20229;-84
2021/05/24 05:25:45;;;;;;;1.00;1.00;;;;;;;11.04;69.94;95443.47;4944029;29;20689;-84
2021/05/24 05:28:11;;;;;;;2.20;1.20;;;;;;;11.04;69.97;95446.84;4969367;28;20204;-85
2021/05/24 05:30:37;;;;;;;1.50;1.27;;;;;;;10.95;70.13;95449.72;4963295;28;20201;-86
2021/05/24 05:33:04;;;;;;;2.93;2.13;;;;;;;10.96;70.42;95453.91;4961179;29;20236;-84
2021/05/24 05:35:30;;;;;;;1.30;1.20;;;;;;;11.12;69.63;95453.69;4946892;29;20213;-83
2021/05/24 05:37:56;;;;;;;0.97;0.97;;;;;;;11.33;68.91;95443.38;4942328;29;20689;-82
2021/05/24 05:40:23;;;;;;;1.27;1.10;;;;;;;11.30;68.88;95448.09;4950600;29;20268;-84
2021/05/24 05:42:49;;;;;;;1.43;1.17;;;;;;;11.34;68.23;95444.97;4960608;29;20614;-82
2021/05/24 05:45:17;;;;;;;1.20;1.10;;;;;;;11.28;68.56;95432.81;4949960;29;20205;-83
2021/05/24 05:47:44;;;;;;;1.20;1.10;;;;;;;11.21;68.36;95426.00;4941953;29;20210;-84
2021/05/24 05:50:11;;;;;;;1.00;1.00;;;;;;;11.25;67.89;95430.59;4951021;29;20201;-84
2021/05/24 05:52:38;;;;;;;1.33;1.20;;;;;;;11.40;68.24;95420.22;4956069;29;20232;-84
2021/05/24 05:55:06;;;;;;;1.73;1.30;;;;;;;11.37;67.63;95418.00;4959604;28;20284;-82
2021/05/24 05:57:32;;;;;;;1.00;1.00;;;;;;;11.42;67.91;95418.25;4963106;28;20193;-83
2021/05/24 05:59:58;;;;;;;1.83;1.20;;;;;;;11.46;67.65;95413.53;4972367;28;20793;-83
2021/05/24 06:02:24;;;;;;;1.40;1.30;;;;;;;11.55;67.83;95395.16;4950093;29;20202;-84
2021/05/24 06:04:50;;;;;;;1.10;1.00;;;;;;;11.55;67.54;95394.34;4942307;29;20212;-85
2021/05/24 06:07:16;;;;;;;1.47;1.10;;;;;;;11.48;67.79;95386.59;4944400;29;20654;-83
2021/05/24 06:09:43;;;;;;;1.03;0.97;;;;;;;11.55;67.88;95384.84;4961040;29;20255;-86
2021/05/24 06:12:11;;;;;;;2.33;1.13;;;;;;;11.65;67.05;95377.59;4959239;29;20225;-85
2021/05/24 06:14:38;;;;;;;1.07;1.00;;;;;;;11.60;67.23;95367.03;4942952;29;20209;-85
2021/05/24 06:17:04;;;;;;;1.20;1.10;;;;;;;11.66;67.64;95357.75;4942947;29;20204;-84
2021/05/24 06:19:30;;;;;;;2.23;1.20;;;;;;;11.80;67.31;95367.19;4961299;28;20230;-85
2021/05/24 06:21:55;;;;;;;1.33;1.00;;;;;;;11.79;66.22;95367.38;4961074;29;20208;-84
2021/05/24 06:24:21;;;;;;;2.13;1.00;;;;;;;11.82;66.50;95362.66;4943304;29;20233;-85
2021/05/24 06:26:47;;;;;;;0.90;0.90;;;;;;;11.91;66.16;95353.00;4952524;28;20206;-84
2021/05/24 06:29:21;;;;;;;1.20;1.10;;;;;;;11.96;65.84;95355.78;4971639;28;20924;-85
2021/05/24 06:31:47;;;;;;;2.50;1.10;;;;;;;12.04;66.04;95353.84;4978708;28;20228;-82
2021/05/24 06:34:13;;;;;;;3.07;1.20;;;;;;;12.12;64.87;95355.47;4962790;28;20240;-83
2021/05/24 06:36:39;;;;;;;1.20;1.10;;;;;;;12.21;65.94;95363.84;4960406;29;20264;-84
2021/05/24 06:39:05;;;;;;;1.10;1.00;;;;;;;12.24;65.82;95363.47;4959821;29;20224;-83
2021/05/24 06:41:31;;;;;;;1.00;1.00;;;;;;;12.34;64.60;95363.91;4960478;29;20609;-83
2021/05/24 06:43:59;;;;;;;1.27;1.00;;;;;;;12.32;64.26;95373.63;4961383;29;20224;-83
2021/05/24 06:46:25;;;;;;;1.17;1.00;;;;;;;12.34;65.31;95377.59;4958295;29;20231;-82
2021/05/24 06:48:52;;;;;;;2.00;1.10;;;;;;;12.54;64.95;95382.03;4941890;29;20293;-84
2021/05/24 06:51:18;;;;;;;2.07;1.10;;;;;;;12.55;64.63;95378.47;4943981;29;20221;-84
2021/05/24 06:53:44;;;;;;;1.10;1.00;;;;;;;12.53;64.36;95370.13;4959246;29;20236;-85
2021/05/24 06:56:10;;;;;;;1.20;1.10;;;;;;;12.47;63.69;95376.09;4959711;29;20201;-84
2021/05/24 06:58:36;;;;;;;1.30;1.20;;;;;;;12.48;63.85;95373.31;4956608;29;20289;-83
2021/05/24 07:01:02;;;;;;;2.57;1.13;;;;;;;12.57;64.58;95382.47;4953435;29;20197;-86
2021/05/24 07:03:29;;;;;;;1.20;1.00;;;;;;;12.64;65.51;95379.91;4958718;29;20236;-86
2021/05/24 07:05:56;;;;;;;0.97;0.97;;;;;;;12.70;64.38;95373.97;4940593;29;20201;-85
2021/05/24 07:08:22;;;;;;;1.07;1.00;;;;;;;12.72;63.29;95372.75;4950606;29;20288;-86
2021/05/24 07:10:48;;;;;;;1.37;1.10;;;;;;;12.72;63.35;95362.44;4959559;29;20287;-84
2021/05/24 07:13:14;;;;;;;1.67;1.53;;;;;;;12.75;64.09;95364.63;4959648;29;20228;-83
2021/05/24 07:15:40;;;;;;;5.17;1.67;;;;;;;12.75;64.52;95363.84;4949692;29;20205;-84
2021/05/24 07:18:06;;;;;;;1.20;1.10;;;;;;;12.75;64.41;95358.66;4943333;29;20228;-84
2021/05/24 07:20:33;;;;;;;1.10;1.00;;;;;;;12.80;63.99;95353.72;4943221;29;20666;-86
2021/05/24 07:22:59;;;;;;;1.07;1.00;;;;;;;12.86;63.97;95363.28;4942005;29;20244;-86
2021/05/24 07:25:26;;;;;;;3.07;1.20;;;;;;;12.97;64.05;95344.59;4946299;29;20197;-84
2021/05/24 07:27:52;;;;;;;2.10;1.07;;;;;;;13.07;62.99;95350.19;4942541;28;20913;-86
2021/05/24 07:30:18;;;;;;;1.97;1.07;;;;;;;13.09;62.53;95348.19;4946658;28;20217;-84
2021/05/24 07:32:45;;;;;;;1.10;1.00;;;;;;;13.27;62.40;95344.28;4945656;29;20244;-84
2021/05/24 07:35:12;;;;;;;1.70;1.00;;;;;;;13.35;62.17;95344.06;4938586;29;20233;-86
2021/05/24 07:37:39;;;;;;;0.90;0.90;;;;;;;13.51;62.70;95342.84;4940411;29;20662;-82
2021/05/24 07:40:09;;;;;;;1.63;1.00;;;;;;;13.60;62.69;95334.69;4944881;29;20206;-85
2021/05/24 07:42:35;;;;;;;1.20;1.00;;;;;;;13.69;63.17;95333.47;4946527;29;20247;-84
2021/05/24 07:45:01;;;;;;;0.80;0.80;;;;;;;13.75;61.57;95329.28;4941228;29;21465;-86
2021/05/24 07:47:27;;;;;;;1.17;1.07;;;;;;;13.85;61.54;95326.31;4942168;29;20570;-85
2021/05/24 07:49:53;;;;;;;2.40;1.10;;;;;;;14.06;60.54;95332.00;4941632;29;20197;-85
2021/05/24 07:52:19;;;;;;;1.10;1.00;;;;;;;14.22;59.79;95330.78;4941915;28;20645;-82
2021/05/24 07:54:46;;;;;;;1.10;1.00;;;;;;;14.40;60.05;95324.91;4947599;29;20201;-83
2021/05/24 07:57:12;;;;;;;1.10;1.00;;;;;;;14.46;58.59;95327.50;4946429;29;20201;-86
2021/05/24 07:59:38;;;;;;;1.43;1.03;;;;;;;14.55;59.98;95335.84;4945075;29;20208;-85
2021/05/24 08:02:06;;;;;;;1.00;0.90;;;;;;;14.50;58.37;95330.47;4939306;29;20438;-86
2021/05/24 08:04:32;;;;;;;1.00;0.83;;;;;;;14.46;58.59;95329.28;4943634;29;20224;-86
2021/05/24 08:06:58;;;;;;;1.67;1.13;;;;;;;14.59;58.66;95325.84;4946192;29;20202;-86
2021/05/24 08:09:24;;;;;;;2.33;1.53;;;;;;;14.61;58.27;95324.66;4941501;29;20800;-85
2021/05/24 08:11:51;;;;;;;1.27;1.07;;;;;;;14.59;57.43;95326.66;4938450;29;20292;-83
2021/05/24 08:14:18;;;;;;;2.40;0.93;;;;;;;14.56;57.69;95334.03;4942122;29;20438;-84
2021/05/24 08:16:45;;;;;;;1.30;0.90;;;;;;;14.56;56.63;95334.03;4940205;29;20626;-87
2021/05/24 08:19:11;;;;;;;2.40;1.00;;;;;;;14.65;57.39;95332.78;4940888;29;20216;-86
2021/05/24 08:21:40;;;;;;;2.97;1.00;;;;;;;14.71;56.72;95334.56;4946105;29;20206;-82
2021/05/24 08:24:07;;;;;;;1.00;0.90;;;;;;;14.78;56.90;95340.50;4956713;29;20213;-81
2021/05/24 08:26:33;;;;;;;1.00;0.87;;;;;;;14.87;56.44;95341.81;4961769;28;20208;-84
2021/05/24 08:29:00;;;;;;;1.93;1.07;;;;;;;14.85;56.19;95343.84;4959598;28;20224;-84
2021/05/24 08:31:26;;;;;;;6.60;5.70;;;;;;;14.91;56.52;95339.63;4958116;29;20205;-86
2021/05/24 08:33:52;;;;;;;1.73;1.57;;;;;;;15.00;56.94;95340.97;4950874;29;20233;-83
2021/05/24 08:36:18;;;;;;;1.40;1.10;;;;;;;15.05;55.90;95357.47;4941144;29;20198;-85
2021/05/24 08:38:44;;;;;;;1.03;1.00;;;;;;;15.14;56.30;95358.03;4949830;29;20213;-82
2021/05/24 08:41:10;;;;;;;1.00;1.00;;;;;;;15.17;55.77;95358.41;4958177;29;20212;-83
2021/05/24 08:43:38;;;;;;;1.47;1.00;;;;;;;15.21;55.72;95356.94;4948975;29;20216;-83
2021/05/24 08:46:04;;;;;;;2.27;1.00;;;;;;;15.20;56.36;95346.81;4939057;29;20290;-85
2021/05/24 08:48:31;;;;;;;1.10;1.00;;;;;;;15.27;56.51;95350.13;4957207;29;20291;-84
2021/05/24 08:50:57;;;;;;;1.33;0.90;;;;;;;15.31;56.30;95347.91;4958648;29;20206;-85
2021/05/24 08:53:23;;;;;;;1.07;1.00;;;;;;;15.27;57.01;95331.19;4957661;29;20229;-83
2021/05/24 08:55:49;;;;;;;1.43;1.10;;;;;;;15.17;56.84;95329.09;4959108;29;20200;-84
2021/05/24 08:58:16;;;;;;;2.30;1.00;;;;;;;15.15;57.15;95321.50;4948973;29;20208;-84
2021/05/24 09:00:42;;;;;;;1.13;1.03;;;;;;;15.15;56.54;95321.50;4946410;29;20200;-83
2021/05/24 09:03:17;;;;;;;2.20;1.00;;;;;;;15.14;56.55;95308.75;4957546;29;20228;-83
2021/05/24 09:05:44;;;;;;;1.33;1.10;;;;;;;15.10;57.45;95303.19;4957033;29;20204;-86
2021/05/24 09:08:10;;;;;;;2.10;0.90;;;;;;;15.17;57.56;95298.75;4958145;29;20711;-84
2021/05/24 09:10:36;;;;;;;1.50;1.27;;;;;;;15.22;57.82;95300.69;4957649;29;20232;-82
2021/05/24 09:13:09;;;;;;;1.93;1.73;;;;;;;15.28;58.58;95294.66;4957721;29;20235;-84
2021/05/24 09:15:35;;;;;;;3.70;1.20;;;;;;;15.30;57.55;95284.88;4951927;29;20212;-82
2021/05/24 09:18:03;;;;;;;1.00;1.00;;;;;;;15.31;57.85;95283.88;4953395;29;20241;-85
2021/05/24 09:20:36;;;;;;;1.40;1.00;;;;;;;15.28;56.76;95284.28;4956685;29;20205;-84
2021/05/24 09:23:14;;;;;;;1.00;1.00;;;;;;;15.31;58.48;95286.47;4957779;29;20247;-86
2021/05/24 09:25:49;;;;;;;1.47;1.17;;;;;;;15.39;58.22;95282.81;4952242;29;20197;-84
2021/05/24 09:28:33;;;;;;;3.33;0.90;;;;;;;15.41;56.78;95289.34;4955364;28;20213;-84
2021/05/24 09:31:02;;;;;;;1.23;1.13;;;;;;;15.47;57.70;95291.09;4943932;29;20874;-84
2021/05/24 09:33:29;;;;;;;1.67;1.00;;;;;;;15.49;58.33;95291.69;4956061;29;20236;-85
2021/05/24 09:35:56;;;;;;;1.10;1.00;;;;;;;15.44;56.97;95285.53;4951736;29;20205;-85
2021/05/24 09:38:23;;;;;;;1.57;1.07;;;;;;;15.42;56.01;95282.38;4936753;29;20678;-83
2021/05/24 09:40:51;;;;;;;2.20;1.10;;;;;;;15.39;56.17;95288.00;4941541;29;20427;-83
2021/05/24 09:43:17;;;;;;;1.30;1.10;;;;;;;15.49;56.89;95290.88;4956575;29;20225;-82
2021/05/24 09:45:43;;;;;;;1.10;1.00;;;;;;;15.54;56.79;95291.06;4955254;29;20197;-84
2021/05/24 09:48:10;;;;;;;2.60;1.30;;;;;;;15.64;58.24;95287.97;4956665;29;20207;-84
2021/05/24 09:50:38;;;;;;;7.90;6.10;;;;;;;15.69;57.49;95288.94;4956442;29;20196;-83
2021/05/24 09:53:05;;;;;;;2.83;1.57;;;;;;;15.75;57.11;95293.28;4952739;28;20225;-84
2021/05/24 09:55:37;;;;;;;1.43;1.30;;;;;;;15.78;57.49;95292.81;4959931;29;20215;-86
2021/05/24 09:58:05;;;;;;;2.73;1.20;;;;;;;15.93;57.98;95289.88;4960330;29;20205;-83
2021/05/24 10:00:41;;;;;;;1.13;0.90;;;;;;;15.95;57.06;95289.66;4959430;29;20236;-85
2021/05/24 10:03:11;;;;;;;3.27;1.23;;;;;;;16.05;56.71;95289.94;4959295;29;20271;-83
2021/05/24 10:05:39;;;;;;;1.20;1.10;;;;;;;16.17;57.39;95286.38;4960604;29;20197;-86
2021/05/24 10:08:07;;;;;;;1.03;1.00;;;;;;;16.21;56.17;95277.16;4960353;29;20200;-86
2021/05/24 10:10:33;;;;;;;1.95;1.35;;;;;;;16.33;56.62;95279.81;4949278;29;20755;-83
2021/05/24 10:13:00;;;;;;;1.23;1.00;;;;;;;16.41;56.49;95278.69;4943407;29;20220;-86
2021/05/24 10:15:27;;;;;;;5.57;1.20;;;;;;;16.49;56.78;95268.00;4961222;29;20261;-85
2021/05/24 10:17:59;;;;;;;1.30;1.00;;;;;;;16.46;56.91;95276.25;4958946;29;20205;-85
2021/05/24 10:20:25;;;;;;;1.10;1.00;;;;;;;16.59;57.04;95268.25;4960178;29;20308;-85
2021/05/24 10:22:52;;;;;;;1.33;1.15;;;;;;;16.65;55.92;95279.63;4958398;29;20584;-86
2021/05/24 10:25:20;;;;;;;1.10;1.00;;;;;;;16.69;55.38;95281.56;4958252;29;20713;-85
2021/05/24 10:27:50;;;;;;;2.30;1.05;;;;;;;16.70;56.38;95277.16;4961717;28;20196;-85
2021/05/24 10:30:17;;;;;;;1.27;1.10;;;;;;;16.74;56.03;95273.88;4978349;28;20211;-84
2021/05/24 10:32:54;;;;;;;1.35;1.00;;;;;;;16.66;54.53;95276.78;4959271;29;20232;-83
2021/05/24 10:35:35;;;;;;;1.13;1.10;;;;;;;16.66;55.63;95270.81;4959805;29;20211;-84
2021/05/24 10:38:26;;;;;;;1.15;1.05;;;;;;;16.70;57.08;95262.34;4941250;29;20205;-84
2021/05/24 10:41:02;;;;;;;1.63;1.40;;;;;;;16.75;56.38;95254.66;4942225;29;20211;-85
2021/05/24 10:43:38;;;;;;;1.98;1.20;;;;;;;16.75;56.33;95254.66;4941171;29;20263;-85
2021/05/24 10:46:35;;;;;;;1.20;1.10;;;;;;;16.76;54.79;95258.84;4945976;29;20215;-84
2021/05/24 10:49:05;;;;;;;1.15;1.00;;;;;;;16.72;54.87;95252.53;4955732;29;20213;-85
2021/05/24 10:51:55;;;;;;;1.30;1.20;;;;;;;16.70;54.69;95249.34;4958785;29;20197;-86
2021/05/24 10:54:28;;;;;;;1.67;1.20;;;;;;;16.79;55.66;95252.41;4959727;29;20759;-85
2021/05/24 10:57:07;;;;;;;1.30;1.20;;;;;;;16.84;55.10;95244.75;4947361;29;20250;-82
2021/05/24 10:59:48;;;;;;;1.10;1.00;;;;;;;16.91;55.80;95240.25;4941385;29;20205;-83
2021/05/24 11:02:15;;;;;;;1.95;1.38;;;;;;;17.00;55.71;95241.47;4953783;29;20193;-84
2021/05/24 11:04:47;;;;;;;1.42;1.20;;;;;;;16.98;56.19;95229.72;4960810;28;20259;-85
2021/05/24 11:07:24;;;;;;;10.57;9.52;;;;;;;17.08;56.95;95216.97;4961214;29;20197;-84
2021/05/24 11:09:50;;;;;;;5.95;5.18;;;;;;;17.11;56.94;95213.91;4961105;29;20199;-83
2021/05/24 11:12:29;;;;;;;1.60;1.50;;;;;;;17.19;55.63;95206.53;4958972;29;20224;-84
2021/05/24 11:15:12;;;;;;;1.90;1.35;;;;;;;17.24;56.03;95190.25;4960593;29;20201;-84
2021/05/24 11:18:13;;;;;;;2.55;1.35;;;;;;;17.28;56.17;95194.00;4956280;29;20244;-85
2021/05/24 11:20:43;;;;;;;1.70;1.38;;;;;;;17.41;56.81;95187.75;4959767;29;20287;-83
2021/05/24 11:23:17;;;;;;;2.40;1.55;;;;;;;17.45;55.82;95183.69;4956419;29;21458;-84
2021/05/24 11:25:55;;;;;;;2.67;2.42;;;;;;;17.42;56.55;95182.31;4940770;29;20197;-84
2021/05/24 11:28:31;;;;;;;2.10;1.90;;;;;;;17.50;56.18;95170.78;4965642;28;20267;-85
2021/05/24 11:31:12;;;;;;;1.20;1.10;;;;;;;17.56;55.77;95165.41;4950054;29;20202;-86
2021/05/24 11:33:54;;;;;;;4.55;1.50;;;;;;;17.60;56.68;95165.75;4939875;29;20240;-85
2021/05/24 11:36:42;;;;;;;2.88;1.23;;;;;;;17.63;55.80;95167.13;4938471;29;20285;-86